createdAt,value
2017-12-22T00:03:56.299Z,5.60
2017-12-22T00:08:57.799Z,5.60
2017-12-22T00:13:59.288Z,5.60
2017-12-22T00:19:01.531Z,5.60
2017-12-22T00:24:03.733Z,5.60
2017-12-22T00:29:05.206Z,5.60
2017-12-22T00:34:06.679Z,5.70
2017-12-22T00:39:08.937Z,5.70
2017-12-22T00:44:10.418Z,5.60
2017-12-22T00:49:11.916Z,5.70
2017-12-22T00:54:13.407Z,5.60
2017-12-22T00:59:14.865Z,5.60
2017-12-22T01:04:17.090Z,5.70
2017-12-22T01:09:19.490Z,5.70
2017-12-22T01:14:20.938Z,5.70
2017-12-22T01:19:22.426Z,5.70
2017-12-22T01:24:23.891Z,5.70
2017-12-22T01:29:26.109Z,5.70
2017-12-22T01:34:27.624Z,5.70
2017-12-22T01:39:29.846Z,5.70
2017-12-22T01:44:31.313Z,5.70
2017-12-22T01:49:32.790Z,5.70
2017-12-22T01:54:35.002Z,5.70
2017-12-22T01:59:36.482Z,5.70
2017-12-22T02:04:37.986Z,5.80
2017-12-22T02:09:39.611Z,5.70
2017-12-22T02:14:41.049Z,5.70
2017-12-22T02:19:42.526Z,5.80
2017-12-22T02:24:45.114Z,5.90
2017-12-22T02:29:46.599Z,5.90
2017-12-22T02:34:48.050Z,5.80
2017-12-22T02:39:49.508Z,5.80
2017-12-22T02:44:51.004Z,5.90
2017-12-22T02:49:53.211Z,5.90
2017-12-22T02:54:55.050Z,5.90
2017-12-22T02:59:56.531Z,6.00
2017-12-22T03:04:58.039Z,6.00
2017-12-22T03:09:59.646Z,6.00
2017-12-22T03:15:01.140Z,6.00
2017-12-22T03:20:03.386Z,5.90
2017-12-22T03:25:05.283Z,5.90
2017-12-22T03:30:06.763Z,6.00
2017-12-22T03:35:08.246Z,5.90
2017-12-22T03:40:09.727Z,5.90
2017-12-22T03:45:11.919Z,5.90
2017-12-22T03:50:13.414Z,5.90
2017-12-22T03:55:15.290Z,6.00
2017-12-22T04:00:16.810Z,6.00
2017-12-22T04:05:18.343Z,6.00
2017-12-22T04:10:20.723Z,6.00
2017-12-22T04:15:22.192Z,6.00
2017-12-22T04:20:23.659Z,6.10
2017-12-22T04:25:25.129Z,6.10
2017-12-22T04:30:26.591Z,6.10
2017-12-22T04:35:28.050Z,6.10
2017-12-22T04:40:29.494Z,6.10
2017-12-22T04:45:30.954Z,6.10
2017-12-22T04:50:33.910Z,6.20
2017-12-22T04:55:35.719Z,6.10
2017-12-22T05:00:37.288Z,6.20
2017-12-22T05:05:38.782Z,6.20
2017-12-22T05:10:41.162Z,6.20
2017-12-22T05:15:42.619Z,6.20
2017-12-22T05:20:44.087Z,6.20
2017-12-22T05:25:45.938Z,6.20
2017-12-22T05:30:47.424Z,6.20
2017-12-22T05:35:48.874Z,6.20
2017-12-22T05:40:50.369Z,6.20
2017-12-22T05:45:51.838Z,6.30
2017-12-22T05:50:53.289Z,6.20
2017-12-22T05:55:55.147Z,6.00
2017-12-22T06:00:56.639Z,5.80
2017-12-22T06:05:58.094Z,5.70
2017-12-22T06:10:59.650Z,5.60
2017-12-22T06:16:01.114Z,5.50
2017-12-22T06:21:02.585Z,5.40
2017-12-22T06:26:04.034Z,5.40
2017-12-22T06:31:05.562Z,5.40
2017-12-22T06:36:07.773Z,5.50
2017-12-22T06:41:09.226Z,5.50
2017-12-22T06:46:10.691Z,5.40
2017-12-22T06:51:12.150Z,5.40
2017-12-22T06:56:13.954Z,5.40
2017-12-22T07:01:15.398Z,5.40
2017-12-22T07:06:16.838Z,5.40
2017-12-22T07:11:19.189Z,5.50
2017-12-22T07:16:20.659Z,5.50
2017-12-22T07:21:22.113Z,5.50
2017-12-22T07:26:23.998Z,5.60
2017-12-22T07:31:25.493Z,5.70
2017-12-22T07:36:26.967Z,5.70
2017-12-22T07:41:28.431Z,5.70
2017-12-22T07:46:29.874Z,5.70
2017-12-22T07:51:32.070Z,5.80
2017-12-22T07:56:33.944Z,5.80
2017-12-22T08:01:35.367Z,5.80
2017-12-22T08:06:36.866Z,5.80
2017-12-22T08:11:39.255Z,5.90
2017-12-22T08:16:40.730Z,5.90
2017-12-22T08:21:49.846Z,5.90
2017-12-22T08:26:51.698Z,5.90
2017-12-22T08:31:53.195Z,5.90
2017-12-22T08:36:54.638Z,6.00
2017-12-22T08:41:56.104Z,6.10
2017-12-22T08:46:57.557Z,6.10
2017-12-22T08:51:59.006Z,6.20
2017-12-22T08:57:00.795Z,6.30
2017-12-22T09:02:02.262Z,6.30
2017-12-22T09:07:04.489Z,6.40
2017-12-22T09:12:06.801Z,6.40
2017-12-22T09:17:08.258Z,6.40
2017-12-22T09:22:09.703Z,6.40
2017-12-22T09:27:11.190Z,6.50
2017-12-22T09:32:12.657Z,6.40
2017-12-22T09:37:14.141Z,6.50
2017-12-22T09:42:15.630Z,6.50
2017-12-22T09:47:17.859Z,6.70
2017-12-22T09:52:19.386Z,6.70
2017-12-22T09:57:22.004Z,6.70
2017-12-22T10:02:24.279Z,6.70
2017-12-22T10:07:25.735Z,6.60
2017-12-22T10:12:27.322Z,6.60
2017-12-22T10:17:28.789Z,6.70
2017-12-22T10:22:30.999Z,7.00
2017-12-22T10:27:32.838Z,7.00
2017-12-22T10:32:35.315Z,7.10
2017-12-22T10:37:36.800Z,7.10
2017-12-22T10:42:38.283Z,7.00
2017-12-22T10:47:39.736Z,7.10
2017-12-22T10:52:41.174Z,7.10
2017-12-22T10:57:43.039Z,7.10
2017-12-22T11:02:44.552Z,7.10
2017-12-22T11:07:46.066Z,7.10
2017-12-22T11:12:47.689Z,7.10
2017-12-22T11:17:49.933Z,7.00
2017-12-22T11:22:52.890Z,7.00
2017-12-22T11:27:54.362Z,6.90
2017-12-22T11:32:55.866Z,6.90
2017-12-22T11:37:57.374Z,7.00
2017-12-22T11:42:58.858Z,7.00
2017-12-22T11:48:00.784Z,7.10
2017-12-22T11:53:02.582Z,7.10
2017-12-22T11:58:04.086Z,7.10
2017-12-22T12:03:05.872Z,7.10
2017-12-22T12:08:07.794Z,6.90
2017-12-22T12:13:09.443Z,6.80
2017-12-22T12:18:10.910Z,6.80
2017-12-22T12:23:12.378Z,6.90
2017-12-22T12:28:13.811Z,7.00
2017-12-22T12:33:15.310Z,7.00
2017-12-22T12:38:16.774Z,7.10
2017-12-22T12:43:18.763Z,7.10
2017-12-22T12:48:20.246Z,7.20
2017-12-22T12:53:21.763Z,7.20
2017-12-22T12:58:23.238Z,7.10
2017-12-22T13:03:26.225Z,7.10
2017-12-22T13:08:28.418Z,7.10
2017-12-22T13:13:29.998Z,7.10
2017-12-22T13:18:31.462Z,7.20
2017-12-22T13:23:32.906Z,7.20
2017-12-22T13:28:35.102Z,7.20
2017-12-22T13:33:37.424Z,7.10
2017-12-22T13:38:40.412Z,7.00
2017-12-22T13:43:42.660Z,7.10
2017-12-22T13:48:44.160Z,7.10
2017-12-22T13:53:45.930Z,7.00
2017-12-22T13:58:47.402Z,7.00
2017-12-22T14:20:36.716Z,6.80
2017-12-22T14:25:38.909Z,6.80
2017-12-22T14:30:40.412Z,6.80
2017-12-22T14:35:41.902Z,6.60
2017-12-22T14:45:58.228Z,6.60
2017-12-22T14:51:00.451Z,6.40
2017-12-22T14:56:02.669Z,6.30
2017-12-22T15:01:05.631Z,6.30
2017-12-22T15:06:07.821Z,6.20
2017-12-22T15:11:09.299Z,6.10
2017-12-22T15:16:10.954Z,6.10
2017-12-22T15:21:12.448Z,6.00
2017-12-22T15:26:13.974Z,5.90
2017-12-22T15:31:15.491Z,5.80
2017-12-22T15:36:16.969Z,5.90
2017-12-22T15:41:19.205Z,6.00
2017-12-22T15:46:21.406Z,6.00
2017-12-22T15:51:22.930Z,6.00
2017-12-22T15:56:24.402Z,6.10
2017-12-22T16:01:25.886Z,6.20
2017-12-22T16:06:27.372Z,6.20
2017-12-22T16:11:28.842Z,6.20
2017-12-22T16:16:30.434Z,6.20
2017-12-22T16:21:32.630Z,6.10
2017-12-22T16:26:34.144Z,6.10
2017-12-22T16:31:35.630Z,6.10
2017-12-22T16:36:37.131Z,6.00
2017-12-22T16:41:38.611Z,6.00
2017-12-22T16:46:40.071Z,6.00
2017-12-22T16:51:41.518Z,5.90
2017-12-22T16:56:42.998Z,5.90
2017-12-22T17:01:44.479Z,5.90
2017-12-22T17:06:45.970Z,5.90
